Time;durP1;ratioP1;P1;durP2;ratioP2;P2;SDS_P1;SDS_P2;PMS_P1;PMS_P2;Temp;Humidity;BMP_temperature;BMP_pressure;BME280_temperature;BME280_humidity;BME280_pressure;Samples;Min_cycle;Max_cycle;Signal;HPM_P1;HPM_P2
2022/07/23 00:01:54;;;;;;;6.32;2.95;;;;;;;22.37;47.21;100135.59;5026988;28;20033;-30
2022/07/23 00:04:19;;;;;;;13.98;4.10;;;;;;;21.74;52.26;100153.00;5027184;28;20036;-33
2022/07/23 00:06:45;;;;;;;7.20;3.40;;;;;;;21.25;54.31;100139.47;5027274;28;20049;-30
2022/07/23 00:09:10;;;;;;;7.05;3.45;;;;;;;21.58;53.39;100120.66;5027224;28;20045;-28
2022/07/23 00:11:36;;;;;;;7.88;3.53;;;;;;;21.54;53.77;100144.03;5026766;28;20030;-31
2022/07/23 00:14:01;;;;;;;7.35;3.53;;;;;;;21.56;54.27;100146.47;5026862;28;20033;-28
2022/07/23 00:16:27;;;;;;;7.75;3.50;;;;;;;21.58;53.23;100122.56;5026850;28;20060;-28
2022/07/23 00:18:53;;;;;;;6.28;3.58;;;;;;;21.41;54.97;100148.25;5025205;28;20033;-29
2022/07/23 00:21:18;;;;;;;7.45;3.40;;;;;;;21.27;55.11;100131.03;5026720;28;20044;-28
2022/07/23 00:23:43;;;;;;;9.35;4.15;;;;;;;21.38;55.04;100131.72;5029744;28;20032;-29
2022/07/23 00:26:09;;;;;;;7.43;3.80;;;;;;;21.67;54.19;100139.81;5033607;28;20035;-28
2022/07/23 00:28:34;;;;;;;8.80;4.75;;;;;;;22.07;53.14;100141.16;5033229;28;20031;-30
2022/07/23 00:31:00;;;;;;;11.45;4.55;;;;;;;21.33;56.09;100145.31;5033319;28;20029;-30
2022/07/23 00:33:25;;;;;;;7.82;3.70;;;;;;;20.97;57.35;100145.72;5033235;28;20036;-28
2022/07/23 00:35:51;;;;;;;12.00;4.00;;;;;;;21.21;56.88;100149.28;5033889;28;20034;-30
2022/07/23 00:38:16;;;;;;;10.02;3.80;;;;;;;20.82;58.41;100142.06;5031872;28;20248;-36
2022/07/23 00:40:42;;;;;;;6.45;3.60;;;;;;;20.98;57.62;100150.03;5031969;28;20029;-28
2022/07/23 00:43:07;;;;;;;6.97;3.70;;;;;;;20.84;58.68;100149.88;5031738;28;20029;-30
2022/07/23 00:45:33;;;;;;;5.43;3.50;;;;;;;20.99;58.69;100152.47;5031533;28;20053;-28
2022/07/23 00:47:59;;;;;;;6.53;3.85;;;;;;;21.38;57.60;100134.44;5033453;28;20053;-28
2022/07/23 00:50:24;;;;;;;8.63;4.03;;;;;;;21.59;57.49;100148.59;5033232;28;20080;-28
2022/07/23 00:52:51;;;;;;;7.43;4.25;;;;;;;21.70;57.02;100143.84;5033375;28;20037;-28
2022/07/23 00:55:17;;;;;;;6.40;3.90;;;;;;;21.59;57.71;100146.69;5031731;28;20064;-35
2022/07/23 00:57:42;;;;;;;8.65;4.35;;;;;;;21.59;56.83;100127.69;5031746;28;20499;-28
2022/07/23 01:00:11;;;;;;;6.47;4.22;;;;;;;21.50;57.76;100151.13;5033023;28;20030;-27
2022/07/23 01:02:37;;;;;;;10.10;3.83;;;;;;;21.62;57.60;100154.25;5032948;28;20033;-33
2022/07/23 01:05:04;;;;;;;9.32;3.85;;;;;;;21.54;57.04;100148.66;5031763;28;20683;-27
2022/07/23 01:07:29;;;;;;;7.55;4.00;;;;;;;21.52;56.51;100138.09;5031515;28;20037;-28
2022/07/23 01:09:55;;;;;;;6.38;4.20;;;;;;;21.41;58.28;100158.25;5033146;28;20041;-29
2022/07/23 01:12:21;;;;;;;7.70;4.00;;;;;;;21.63;57.12;100149.63;5033119;28;20029;-28
2022/07/23 01:15:00;;;;;;;7.53;4.68;;;;;;;21.30;56.36;100137.78;5031231;28;20067;-29
2022/07/23 01:17:26;;;;;;;8.32;3.90;;;;;;;20.99;58.30;100157.09;5031572;28;20042;-31
2022/07/23 01:19:52;;;;;;;7.50;4.85;;;;;;;21.30;57.13;100138.59;5031682;28;20040;-28
2022/07/23 01:22:19;;;;;;;7.75;4.00;;;;;;;21.40;56.49;100154.75;5031369;28;20021;-28
2022/07/23 01:24:44;;;;;;;6.20;4.35;;;;;;;21.55;55.82;100151.06;5031647;28;20033;-30
2022/07/23 01:27:12;;;;;;;8.75;4.80;;;;;;;20.94;58.36;100144.38;5031589;28;20033;-28
2022/07/23 01:29:38;;;;;;;9.02;4.10;;;;;;;21.25;57.33;100144.88;5032732;28;20033;-30
2022/07/23 01:32:04;;;;;;;6.97;4.45;;;;;;;21.11;57.88;100154.81;5031777;28;20026;-30
2022/07/23 01:34:29;;;;;;;8.55;4.30;;;;;;;20.99;57.69;100160.59;5030417;28;20095;-29
2022/07/23 01:36:54;;;;;;;6.45;4.60;;;;;;;21.16;57.19;100157.44;5029634;28;20176;-30
2022/07/23 01:39:20;;;;;;;6.70;4.97;;;;;;;20.85;58.12;100136.06;5029396;28;20061;-30
2022/07/23 01:41:46;;;;;;;8.77;4.43;;;;;;;20.82;58.77;100141.22;5029724;28;20488;-28
2022/07/23 01:44:12;;;;;;;10.27;4.38;;;;;;;20.99;57.88;100155.19;5028183;28;20037;-29
2022/07/23 01:46:38;;;;;;;7.20;4.60;;;;;;;21.14;57.11;100146.06;5029842;28;20029;-30
2022/07/23 01:49:04;;;;;;;10.20;4.82;;;;;;;21.00;57.81;100150.56;5028168;28;20039;-28
2022/07/23 01:51:29;;;;;;;7.18;4.80;;;;;;;20.73;58.54;100137.53;5029258;28;20025;-28
2022/07/23 01:53:55;;;;;;;7.72;4.40;;;;;;;20.80;58.14;100149.66;5029773;28;20037;-28
2022/07/23 01:56:20;;;;;;;9.50;4.55;;;;;;;21.05;56.76;100135.06;5029425;28;20481;-28
2022/07/23 01:58:47;;;;;;;8.80;4.32;;;;;;;21.16;56.89;100138.47;5027897;28;20056;-28
2022/07/23 02:01:13;;;;;;;8.30;4.45;;;;;;;20.98;57.37;100133.78;5027860;28;20120;-32
2022/07/23 02:03:38;;;;;;;8.02;4.30;;;;;;;20.30;59.34;100154.34;5027807;28;20021;-30
2022/07/23 02:06:04;;;;;;;8.02;4.40;;;;;;;20.14;60.17;100140.09;5029217;28;20025;-28
2022/07/23 02:08:29;;;;;;;7.72;4.40;;;;;;;20.61;59.40;100151.44;5029060;28;20025;-35
2022/07/23 02:10:55;;;;;;;8.77;4.05;;;;;;;21.27;57.29;100167.09;5029213;28;20076;-30
2022/07/23 02:13:20;;;;;;;8.38;4.50;;;;;;;21.06;56.69;100162.97;5028897;28;20029;-28
2022/07/23 02:15:47;;;;;;;7.20;4.68;;;;;;;21.05;56.43;100158.66;5029130;28;20444;-30
2022/07/23 02:18:12;;;;;;;7.40;4.47;;;;;;;21.23;56.39;100154.41;5029365;28;20037;-28
2022/07/23 02:20:38;;;;;;;10.88;4.80;;;;;;;21.08;56.10;100155.34;5029334;28;20032;-30
2022/07/23 02:23:04;;;;;;;7.65;4.53;;;;;;;20.98;56.24;100139.19;5029172;28;20432;-30
2022/07/23 02:25:29;;;;;;;8.20;4.28;;;;;;;21.38;55.27;100164.28;5027289;28;20025;-29
2022/07/23 02:27:55;;;;;;;14.55;5.10;;;;;;;20.98;56.05;100160.88;5028557;28;20037;-28
2022/07/23 02:30:20;;;;;;;8.45;4.18;;;;;;;20.76;56.22;100143.19;5028966;28;20064;-27
2022/07/23 02:32:46;;;;;;;9.27;4.30;;;;;;;20.64;57.00;100150.91;5027340;28;20095;-28
2022/07/23 02:35:11;;;;;;;9.80;4.30;;;;;;;21.04;55.64;100154.31;5028598;28;20099;-32
2022/07/23 02:37:37;;;;;;;8.27;4.70;;;;;;;20.95;55.45;100145.19;5028426;28;20516;-28
2022/07/23 02:40:03;;;;;;;7.95;5.07;;;;;;;21.36;54.69;100158.34;5026925;28;20425;-31
2022/07/23 02:42:28;;;;;;;8.88;4.82;;;;;;;21.19;55.18;100162.31;5028306;28;20039;-28
2022/07/23 02:44:54;;;;;;;9.93;4.80;;;;;;;21.10;55.37;100147.75;5028617;28;20113;-31
2022/07/23 02:47:19;;;;;;;8.32;5.03;;;;;;;21.24;54.85;100167.66;5027351;28;20025;-28
2022/07/23 02:49:45;;;;;;;8.30;4.38;;;;;;;21.13;54.97;100168.88;5028508;28;20036;-28
2022/07/23 02:52:10;;;;;;;9.80;4.93;;;;;;;20.89;55.25;100162.59;5028486;28;20061;-30
2022/07/23 02:54:37;;;;;;;10.07;4.97;;;;;;;20.76;55.30;100155.91;5028480;28;20083;-28
2022/07/23 02:57:04;;;;;;;9.43;5.05;;;;;;;20.95;55.00;100167.69;5026836;28;20079;-31
2022/07/23 02:59:29;;;;;;;9.90;4.88;;;;;;;21.04;54.50;100176.00;5026944;28;20575;-29
2022/07/23 03:01:55;;;;;;;12.98;5.10;;;;;;;20.73;54.99;100167.34;5028337;28;20112;-30
2022/07/23 03:04:20;;;;;;;11.48;5.28;;;;;;;20.87;54.55;100160.97;5028542;28;20057;-29
2022/07/23 03:06:46;;;;;;;9.48;4.80;;;;;;;20.70;54.68;100155.19;5026950;28;20120;-27
2022/07/23 03:09:12;;;;;;;12.25;5.25;;;;;;;20.53;55.09;100160.97;5026843;28;20040;-28
2022/07/23 03:11:37;;;;;;;10.73;5.53;;;;;;;20.46;56.27;100177.53;5027876;28;20025;-30
2022/07/23 03:14:03;;;;;;;10.75;5.15;;;;;;;20.65;55.02;100185.00;5028048;28;20363;-28
2022/07/23 03:16:28;;;;;;;10.50;4.68;;;;;;;20.37;56.29;100179.25;5026276;28;20049;-32
2022/07/23 03:18:53;;;;;;;14.48;5.30;;;;;;;20.58;55.49;100179.09;5028073;28;20115;-32
2022/07/23 03:21:19;;;;;;;12.02;5.35;;;;;;;20.05;57.59;100179.72;5026424;28;20037;-29
2022/07/23 03:23:44;;;;;;;10.55;4.90;;;;;;;20.13;57.74;100170.19;5027986;28;20026;-28
2022/07/23 03:26:10;;;;;;;11.35;5.72;;;;;;;19.96;58.43;100173.25;5027596;28;20029;-31
2022/07/23 03:28:35;;;;;;;10.18;4.65;;;;;;;20.22;58.24;100179.31;5028074;28;20444;-30
2022/07/23 03:31:01;;;;;;;11.65;4.80;;;;;;;20.26;59.11;100193.94;5028156;28;20119;-30
2022/07/23 03:33:26;;;;;;;11.15;5.63;;;;;;;20.17;59.03;100185.59;5026248;28;20504;-30
2022/07/23 03:35:52;;;;;;;12.75;5.55;;;;;;;20.36;58.69;100193.84;5027889;28;20038;-28
2022/07/23 03:38:17;;;;;;;11.63;4.90;;;;;;;20.44;57.76;100189.75;5027869;28;20036;-31
2022/07/23 03:40:42;;;;;;;9.35;5.00;;;;;;;20.38;58.17;100180.03;5027526;28;20040;-30
2022/07/23 03:43:08;;;;;;;10.60;5.25;;;;;;;20.45;58.59;100186.78;5026363;28;20025;-28
2022/07/23 03:45:33;;;;;;;13.60;5.10;;;;;;;20.38;58.44;100180.84;5026209;28;20033;-27
2022/07/23 03:47:59;;;;;;;12.73;5.50;;;;;;;20.02;60.87;100193.78;5027534;28;20104;-29
2022/07/23 03:50:25;;;;;;;11.38;6.15;;;;;;;20.31;60.45;100199.31;5027499;28;20029;-28
2022/07/23 03:52:51;;;;;;;9.07;5.38;;;;;;;20.32;59.29;100187.38;5026181;28;20563;-29
2022/07/23 03:55:17;;;;;;;8.57;5.35;;;;;;;20.09;59.95;100179.97;5027286;28;20036;-32
2022/07/23 03:57:42;;;;;;;12.05;4.90;;;;;;;20.20;60.60;100190.44;5026877;28;20410;-30
2022/07/23 04:00:09;;;;;;;10.50;5.88;;;;;;;20.11;59.73;100197.53;5027580;28;20033;-29
2022/07/23 04:02:36;;;;;;;12.47;5.10;;;;;;;20.03;59.92;100196.22;5025940;28;20033;-30
2022/07/23 04:05:02;;;;;;;14.77;5.40;;;;;;;19.88;60.98;100177.38;5026008;28;20288;-32
2022/07/23 04:07:27;;;;;;;10.65;5.15;;;;;;;20.01;59.81;100187.56;5009151;28;20475;-30
2022/07/23 04:09:52;;;;;;;8.30;4.78;;;;;;;20.14;59.05;100190.75;5026900;28;20075;-28
2022/07/23 04:12:18;;;;;;;12.73;5.35;;;;;;;20.11;60.41;100210.28;5025855;28;20041;-28
2022/07/23 04:14:44;;;;;;;13.52;5.07;;;;;;;20.24;60.90;100204.22;5026957;28;20021;-30
2022/07/23 04:17:09;;;;;;;9.50;5.15;;;;;;;20.40;59.84;100197.63;5027183;28;20775;-31
2022/07/23 04:19:39;;;;;;;8.68;4.78;;;;;;;20.52;59.68;100183.75;5026778;28;20031;-28
2022/07/23 04:22:06;;;;;;;12.35;5.32;;;;;;;20.59;59.65;100205.13;5027017;28;20491;-29
2022/07/23 04:24:31;;;;;;;11.52;5.47;;;;;;;20.71;60.14;100213.69;5025368;28;20033;-29
2022/07/23 04:26:57;;;;;;;11.20;5.78;;;;;;;20.59;59.21;100203.22;5027368;28;20037;-31
2022/07/23 04:29:23;;;;;;;10.75;5.60;;;;;;;20.68;58.87;100206.16;5025447;28;20036;-28
2022/07/23 04:31:48;;;;;;;10.38;6.00;;;;;;;20.61;60.71;100211.06;5027147;28;20029;-31
2022/07/23 04:34:14;;;;;;;8.90;6.13;;;;;;;20.91;59.17;100184.81;5026924;28;20030;-28
2022/07/23 04:36:39;;;;;;;9.68;6.18;;;;;;;20.95;59.89;100204.84;5026954;28;20030;-28
2022/07/23 04:39:05;;;;;;;10.90;5.82;;;;;;;21.18;59.41;100206.78;5026892;28;20552;-29
2022/07/23 04:41:30;;;;;;;16.20;6.78;;;;;;;21.17;59.50;100191.63;5026776;28;20475;-27
2022/07/23 04:43:55;;;;;;;15.10;7.10;;;;;;;21.31;60.21;100201.78;5027439;28;20033;-30
2022/07/23 04:46:21;;;;;;;11.05;6.45;;;;;;;21.27;60.43;100204.28;5027291;28;20025;-30
2022/07/23 04:48:46;;;;;;;13.43;6.80;;;;;;;21.24;60.80;100181.22;5026904;28;20026;-29
2022/07/23 04:51:12;;;;;;;12.23;6.57;;;;;;;21.54;59.87;100211.88;5026853;28;20025;-33
2022/07/23 04:53:38;;;;;;;14.23;7.47;;;;;;;21.45;59.62;100203.56;5026526;28;20064;-31
2022/07/23 04:56:04;;;;;;;15.48;8.68;;;;;;;21.61;59.10;100206.91;5025257;28;20485;-28
2022/07/23 04:58:31;;;;;;;18.15;9.80;;;;;;;21.54;58.77;100209.16;5025195;28;20472;-29
2022/07/23 05:00:57;;;;;;;20.30;10.80;;;;;;;21.49;59.38;100194.84;5026649;28;20486;-28
2022/07/23 05:03:23;;;;;;;16.65;9.48;;;;;;;21.74;58.38;100204.56;5026454;28;20037;-29
2022/07/23 05:05:49;;;;;;;22.88;11.90;;;;;;;22.01;58.39;100206.69;5026905;28;20083;-28
2022/07/23 05:08:15;;;;;;;21.55;13.15;;;;;;;22.23;56.33;100206.09;5025143;28;20487;-29
2022/07/23 05:10:40;;;;;;;23.77;13.75;;;;;;;22.26;56.64;100206.38;5028465;28;20072;-33
2022/07/23 05:13:06;;;;;;;14.93;10.25;;;;;;;22.43;55.48;100210.47;5030857;28;20072;-29
2022/07/23 05:15:31;;;;;;;14.73;9.05;;;;;;;22.41;55.95;100207.25;5029926;28;20072;-33
2022/07/23 05:17:57;;;;;;;14.60;8.05;;;;;;;22.49;56.15;100214.72;5030365;28;20030;-28
2022/07/23 05:20:22;;;;;;;14.52;7.90;;;;;;;22.57;56.50;100219.50;5030572;28;20033;-31
2022/07/23 05:22:48;;;;;;;12.20;8.18;;;;;;;22.77;56.27;100215.66;5029934;28;20064;-29
2022/07/23 05:25:13;;;;;;;14.82;7.75;;;;;;;22.86;55.85;100202.19;5030252;28;20481;-29
2022/07/23 05:27:39;;;;;;;13.80;8.43;;;;;;;23.11;56.26;100209.16;5030014;28;20047;-29
2022/07/23 05:30:05;;;;;;;12.07;8.35;;;;;;;23.08;55.70;100198.06;5030013;28;20083;-35
2022/07/23 05:32:32;;;;;;;11.45;8.45;;;;;;;23.51;54.46;100219.56;5030222;28;20033;-30
2022/07/23 05:34:57;;;;;;;17.27;9.20;;;;;;;23.68;53.47;100217.06;5028605;28;20041;-29
2022/07/23 05:37:23;;;;;;;12.43;8.88;;;;;;;23.63;53.50;100215.22;5029779;28;20065;-29
2022/07/23 05:39:48;;;;;;;13.55;8.77;;;;;;;23.80;52.96;100220.13;5030352;28;20393;-30
2022/07/23 05:42:13;;;;;;;13.68;9.43;;;;;;;23.80;52.38;100197.50;5029982;28;20033;-29
2022/07/23 05:44:39;;;;;;;14.90;8.70;;;;;;;24.06;51.32;100212.19;5029928;28;20532;-28
2022/07/23 05:47:04;;;;;;;9.85;8.50;;;;;;;24.02;50.93;100200.31;5029719;28;20025;-31
2022/07/23 05:49:30;;;;;;;11.50;8.00;;;;;;;24.28;51.31;100213.38;5029575;28;20032;-29
2022/07/23 05:51:55;;;;;;;13.18;8.30;;;;;;;24.39;50.32;100209.28;5028134;28;20040;-32
2022/07/23 05:54:21;;;;;;;12.48;8.00;;;;;;;24.43;49.82;100214.94;5028407;28;20029;-29
2022/07/23 05:56:46;;;;;;;11.30;8.70;;;;;;;24.56;50.04;100208.66;5028441;28;20033;-28
2022/07/23 05:59:13;;;;;;;16.70;10.27;;;;;;;24.51;49.42;100197.06;5029702;28;20038;-29
2022/07/23 06:01:38;;;;;;;15.02;9.07;;;;;;;24.67;49.61;100210.03;5011593;28;20449;-34
2022/07/23 06:04:04;;;;;;;11.88;8.07;;;;;;;24.94;48.15;100208.28;5029235;28;20503;-28
2022/07/23 06:06:29;;;;;;;10.38;7.32;;;;;;;24.98;48.19;100209.25;5029359;28;20033;-31
2022/07/23 06:08:55;;;;;;;11.57;7.00;;;;;;;25.07;47.82;100198.41;5029475;28;20021;-27
2022/07/23 06:11:20;;;;;;;14.98;8.50;;;;;;;25.11;48.58;100179.47;5027909;28;20483;-28
2022/07/23 06:13:46;;;;;;;14.10;7.53;;;;;;;25.19;47.90;100209.56;5027823;28;20397;-30
2022/07/23 06:16:11;;;;;;;11.57;7.32;;;;;;;25.24;48.39;100203.97;5029211;28;20052;-28
2022/07/23 06:18:36;;;;;;;12.35;7.80;;;;;;;25.39;48.26;100207.41;5029406;28;20463;-29
2022/07/23 06:21:02;;;;;;;12.75;7.70;;;;;;;25.52;48.28;100206.50;5028789;28;20029;-29
2022/07/23 06:23:27;;;;;;;13.45;7.13;;;;;;;25.64;47.64;100205.88;5027701;28;20099;-29
2022/07/23 06:25:53;;;;;;;13.90;6.93;;;;;;;25.94;45.41;100209.69;5027794;28;20044;-31
2022/07/23 06:28:18;;;;;;;13.23;7.03;;;;;;;26.04;46.56;100203.91;5029097;28;20552;-29
2022/07/23 06:30:44;;;;;;;13.82;6.60;;;;;;;26.04;46.28;100205.84;5029301;28;20084;-28
2022/07/23 06:33:11;;;;;;;10.25;6.82;;;;;;;26.15;46.68;100201.69;5029456;28;20029;-31
2022/07/23 06:35:36;;;;;;;12.93;6.72;;;;;;;26.06;46.03;100198.94;5026997;28;20474;-32
2022/07/23 06:38:02;;;;;;;11.15;6.82;;;;;;;26.30;46.71;100200.41;5028439;28;20029;-29
2022/07/23 06:40:27;;;;;;;11.18;6.60;;;;;;;26.43;45.17;100191.22;5028984;28;20084;-28
2022/07/23 06:42:53;;;;;;;10.10;6.38;;;;;;;26.48;44.93;100173.88;5028940;28;20448;-29
2022/07/23 06:45:18;;;;;;;10.52;6.82;;;;;;;26.70;44.26;100193.97;5028523;28;20598;-31
2022/07/23 06:47:44;;;;;;;12.93;6.90;;;;;;;26.89;44.39;100199.09;5028832;28;20554;-28
2022/07/23 06:50:10;;;;;;;10.23;6.50;;;;;;;26.95;44.32;100184.09;5028471;28;20424;-31
2022/07/23 06:52:36;;;;;;;9.25;6.57;;;;;;;27.20;43.09;100196.13;5028416;28;20051;-32
2022/07/23 06:55:01;;;;;;;8.70;6.28;;;;;;;27.27;43.42;100190.97;5028480;28;20029;-28
2022/07/23 06:57:27;;;;;;;8.40;5.97;;;;;;;27.59;43.14;100197.75;5025888;28;20109;-29
2022/07/23 06:59:52;;;;;;;8.05;6.18;;;;;;;27.53;43.38;100177.16;5027353;28;20472;-29
2022/07/23 07:02:18;;;;;;;9.30;5.95;;;;;;;27.78;42.06;100196.50;5027430;28;20117;-29
2022/07/23 07:04:43;;;;;;;9.52;5.82;;;;;;;27.70;41.79;100184.47;5028102;28;20029;-33
2022/07/23 07:07:09;;;;;;;9.27;5.93;;;;;;;27.85;42.45;100194.88;5010362;28;20471;-33
2022/07/23 07:09:34;;;;;;;9.30;6.65;;;;;;;28.01;41.04;100195.13;5026444;28;20038;-28
2022/07/23 07:12:00;;;;;;;10.25;5.93;;;;;;;28.05;42.36;100174.13;5028385;28;20037;-32
2022/07/23 07:14:26;;;;;;;8.80;6.18;;;;;;;28.35;40.35;100185.00;5027799;28;20037;-27
2022/07/23 07:16:51;;;;;;;9.40;6.13;;;;;;;28.35;40.35;100170.50;5027780;28;20108;-28
2022/07/23 07:19:16;;;;;;;11.82;6.20;;;;;;;28.68;39.88;100181.50;5027836;28;20101;-30
2022/07/23 07:21:42;;;;;;;9.75;5.90;;;;;;;29.04;38.57;100193.72;5027920;28;20029;-28
2022/07/23 07:24:07;;;;;;;14.25;5.85;;;;;;;29.33;39.68;100179.03;5028104;28;20025;-30
2022/07/23 07:26:34;;;;;;;8.10;6.25;;;;;;;28.98;38.76;100170.38;5027898;28;20026;-29
2022/07/23 07:28:59;;;;;;;10.50;5.82;;;;;;;28.90;38.10;100166.59;5026618;28;20040;-31
2022/07/23 07:31:25;;;;;;;10.23;5.82;;;;;;;29.15;38.91;100161.16;5027576;28;20066;-28
2022/07/23 07:33:50;;;;;;;10.68;5.88;;;;;;;29.34;37.79;100174.31;5026962;28;20037;-32
2022/07/23 07:36:16;;;;;;;12.90;5.82;;;;;;;29.53;37.57;100171.03;5025947;28;20382;-30
2022/07/23 07:38:41;;;;;;;9.60;5.50;;;;;;;29.72;38.28;100178.69;5027777;28;20099;-28
2022/07/23 07:41:07;;;;;;;10.32;5.93;;;;;;;29.63;37.65;100168.59;5026168;28;20086;-28
2022/07/23 07:43:33;;;;;;;11.20;6.45;;;;;;;29.61;37.98;100159.91;5027443;28;20044;-28
2022/07/23 07:45:59;;;;;;;12.70;6.50;;;;;;;30.05;37.41;100175.75;5027346;28;20132;-30
2022/07/23 07:48:24;;;;;;;9.43;6.00;;;;;;;30.14;38.03;100162.69;5027353;28;20021;-29
2022/07/23 07:50:49;;;;;;;9.57;6.07;;;;;;;30.42;37.66;100170.97;5027057;28;20076;-28
2022/07/23 07:53:15;;;;;;;11.27;6.25;;;;;;;30.41;36.10;100163.06;5027375;28;20416;-31
2022/07/23 07:55:40;;;;;;;9.93;6.03;;;;;;;30.32;35.94;100157.72;5026959;28;20040;-28
2022/07/23 07:58:06;;;;;;;11.88;6.65;;;;;;;30.37;36.79;100173.97;5027274;28;20029;-28
2022/07/23 08:00:32;;;;;;;10.85;6.00;;;;;;;30.36;36.73;100164.13;5027650;28;20033;-31
2022/07/23 08:02:58;;;;;;;10.20;6.43;;;;;;;30.40;36.39;100156.78;5026985;28;20083;-30
2022/07/23 08:05:28;;;;;;;10.40;6.25;;;;;;;30.56;36.16;100167.00;5025377;28;20033;-27
2022/07/23 08:07:58;;;;;;;11.45;6.03;;;;;;;30.71;34.31;100152.50;5027484;28;20508;-28
2022/07/23 08:10:26;;;;;;;9.63;6.60;;;;;;;30.82;35.23;100161.81;5025976;28;20045;-28
2022/07/23 08:12:53;;;;;;;9.18;6.55;;;;;;;31.15;35.33;100171.72;5025668;28;20029;-29
2022/07/23 08:15:22;;;;;;;8.82;5.47;;;;;;;31.35;34.97;100160.78;5024793;28;20604;-28
2022/07/23 08:17:48;;;;;;;8.52;5.72;;;;;;;31.35;34.77;100160.78;5025391;28;20040;-29
2022/07/23 08:20:17;;;;;;;12.07;6.18;;;;;;;31.38;34.31;100158.09;5025617;28;20040;-29
2022/07/23 08:22:49;;;;;;;8.15;5.53;;;;;;;31.59;34.55;100160.59;5025613;28;20029;-28
2022/07/23 08:25:19;;;;;;;9.20;6.20;;;;;;;31.61;35.05;100155.53;5026712;28;20061;-31
2022/07/23 08:27:44;;;;;;;9.82;6.00;;;;;;;31.96;34.00;100143.69;5025363;28;20028;-28
2022/07/23 08:30:10;;;;;;;7.70;6.05;;;;;;;32.11;33.88;100147.56;5026748;28;20029;-28
2022/07/23 08:33:13;;;;;;;11.02;5.57;;;;;;;32.13;32.23;100136.97;5026699;28;20116;-29
2022/07/23 08:35:46;;;;;;;9.23;6.05;;;;;;;32.30;33.09;100146.75;5026568;28;20052;-28
2022/07/23 08:38:15;;;;;;;9.93;5.63;;;;;;;32.16;35.20;100140.94;5026905;28;20493;-28
2022/07/23 08:40:47;;;;;;;9.38;5.63;;;;;;;32.38;33.04;100120.88;5025134;28;20057;-27
2022/07/23 08:43:15;;;;;;;10.15;6.03;;;;;;;32.72;34.02;100115.63;5025342;28;20033;-35
2022/07/23 08:45:44;;;;;;;10.05;5.70;;;;;;;32.99;31.29;100135.00;5028649;28;20041;-29
2022/07/23 08:48:18;;;;;;;7.63;5.50;;;;;;;32.73;31.57;100133.75;5029314;28;20036;-28
2022/07/23 08:50:48;;;;;;;9.68;5.80;;;;;;;32.83;31.04;100124.91;5030476;28;20524;-33
2022/07/23 08:53:16;;;;;;;9.52;5.53;;;;;;;32.99;30.77;100123.94;5029205;28;20716;-28
2022/07/23 08:55:45;;;;;;;;;;;;;;;32.94;31.32;100125.06;5029554;28;20057;-31
2022/07/23 08:58:11;;;;;;;10.13;5.57;;;;;;;33.25;30.20;100123.22;5029178;28;19971;-29
2022/07/23 09:00:37;;;;;;;8.52;5.38;;;;;;;33.58;29.67;100125.28;5028924;28;20067;-31
2022/07/23 09:03:02;;;;;;;8.70;5.75;;;;;;;33.80;30.44;100109.00;5030327;28;20053;-28
2022/07/23 09:05:28;;;;;;;8.98;5.80;;;;;;;34.21;30.63;100109.13;5030178;28;20028;-29
2022/07/23 09:08:33;;;;;;;9.45;5.85;;;;;;;34.17;29.52;100116.59;5030134;28;20037;-33
2022/07/23 09:11:00;;;;;;;9.80;5.28;;;;;;;34.12;28.41;100103.06;5022993;28;20037;-30
2022/07/23 09:13:35;;;;;;;;;;;;;;;34.33;29.45;100108.88;5030708;28;20037;-29
2022/07/23 09:16:00;;;;;;;8.65;5.80;;;;;;;34.35;27.66;100106.50;5028514;28;20532;-32
2022/07/23 09:18:45;;;;;;;10.13;5.35;;;;;;;34.50;28.84;100090.03;5030421;28;20056;-28
2022/07/23 09:21:29;;;;;;;14.10;5.80;;;;;;;34.29;27.62;100091.41;5028844;28;20029;-33
2022/07/23 09:24:01;;;;;;;11.95;5.95;;;;;;;34.56;27.44;100089.31;5028357;28;20489;-30
2022/07/23 09:26:36;;;;;;;11.57;5.75;;;;;;;34.83;27.67;100107.78;5028466;28;20524;-33
2022/07/23 09:29:22;;;;;;;11.82;5.50;;;;;;;35.27;28.29;100104.16;5028631;28;20040;-29
2022/07/23 09:31:58;;;;;;;10.80;6.78;;;;;;;35.30;26.25;100108.94;5028553;28;20037;-34
2022/07/23 09:34:24;;;;;;;;;;;;;;;34.90;27.40;100085.66;5028721;28;20029;-30
2022/07/23 09:36:52;;;;;;;10.50;6.43;;;;;;;34.90;27.11;100074.56;5028644;28;19963;-29
2022/07/23 09:39:26;;;;;;;9.45;6.03;;;;;;;35.45;27.24;100094.00;5028354;28;20036;-31
2022/07/23 09:41:51;;;;;;;11.20;5.30;;;;;;;35.63;26.49;100090.50;5029619;28;20029;-33
2022/07/23 09:44:19;;;;;;;10.13;5.97;;;;;;;35.56;25.90;100094.81;5029518;28;20036;-29
2022/07/23 09:46:47;;;;;;;10.27;5.80;;;;;;;35.57;26.63;100073.44;5029489;28;20025;-30
2022/07/23 09:49:21;;;;;;;11.90;5.70;;;;;;;35.57;26.96;100068.69;5027963;28;20094;-31
2022/07/23 09:51:48;;;;;;;11.45;5.60;;;;;;;35.99;25.94;100078.38;5028249;28;20025;-28
2022/07/23 09:54:30;;;;;;;11.75;6.18;;;;;;;36.08;24.63;100075.22;5028570;28;20132;-31
2022/07/23 09:56:57;;;;;;;9.80;5.45;;;;;;;36.37;23.77;100066.97;5028673;28;20033;-34
2022/07/23 09:59:26;;;;;;;7.53;4.97;;;;;;;36.61;23.94;100057.09;5027180;28;20032;-32
2022/07/23 10:01:55;;;;;;;12.10;5.50;;;;;;;36.93;23.40;100057.09;5028606;28;20531;-28
2022/07/23 10:04:24;;;;;;;8.80;5.50;;;;;;;36.48;24.40;100037.25;5036344;28;20155;-29
2022/07/23 10:06:55;;;;;;;9.13;5.22;;;;;;;36.65;24.36;100057.91;5035649;28;20041;-32
2022/07/23 10:09:29;;;;;;;7.90;5.38;;;;;;;36.82;22.71;100050.78;5039151;28;20033;-28
2022/07/23 10:14:38;;;;;;;9.13;5.40;;;;;;;37.12;23.30;100038.44;5027585;28;20045;-30
2022/07/23 10:17:04;;;;;;;8.90;5.72;;;;;;;37.20;23.46;100046.34;5017907;28;20092;-34
2022/07/23 10:19:30;;;;;;;10.68;5.50;;;;;;;37.15;21.68;100030.09;5026807;28;20112;-33
2022/07/23 10:22:00;;;;;;;11.70;8.50;;;;;;;37.54;23.14;100043.06;5027027;28;20034;-29
2022/07/23 10:24:29;;;;;;;9.68;5.07;;;;;;;37.52;20.07;100042.69;5026865;28;20116;-29
2022/07/23 10:27:20;;;;;;;11.38;5.30;;;;;;;37.73;20.44;100041.81;5028524;28;20040;-30
2022/07/23 10:30:04;;;;;;;7.97;4.72;;;;;;;37.96;19.84;100030.16;5028423;28;20028;-28
2022/07/23 10:32:30;;;;;;;8.65;4.88;;;;;;;38.13;20.71;100042.41;5028566;28;20033;-31
2022/07/23 10:35:23;;;;;;;9.85;5.25;;;;;;;38.20;19.72;100016.50;5028207;28;20072;-30
2022/07/23 10:37:54;;;;;;;12.77;4.65;;;;;;;38.43;18.34;100012.34;5023831;28;20060;-29
2022/07/23 10:40:23;;;;;;;6.90;4.07;;;;;;;38.20;17.61;100008.16;5027012;28;20140;-32
2022/07/23 10:42:51;;;;;;;9.23;4.13;;;;;;;38.17;18.68;99987.50;5026838;28;20084;-34
2022/07/23 10:45:30;;;;;;;7.65;4.13;;;;;;;38.38;18.89;99997.66;5026617;28;20022;-29
2022/07/23 10:48:15;;;;;;;8.05;4.78;;;;;;;38.65;20.25;100002.63;5026375;28;20033;-29
2022/07/23 10:50:42;;;;;;;9.77;4.22;;;;;;;38.79;19.99;100002.50;5026766;28;20061;-33
2022/07/23 10:53:08;;;;;;;;;;;;;;;38.55;18.82;100000.75;5026999;28;20060;-36
2022/07/23 10:55:33;;;;;;;;;;;;;;;38.79;17.61;100002.50;5026733;28;19975;-29
2022/07/23 10:58:03;;;;;;;8.27;4.27;;;;;;;38.80;18.87;99989.34;5027712;28;20393;-30
2022/07/23 11:00:30;;;;;;;7.95;4.43;;;;;;;39.11;19.45;99983.84;5027640;28;20497;-30
2022/07/23 11:02:59;;;;;;;7.53;4.38;;;;;;;39.43;17.27;99986.28;5026490;28;20030;-32
2022/07/23 11:05:38;;;;;;;8.55;4.03;;;;;;;39.75;17.72;99968.31;5027980;28;20080;-28
2022/07/23 11:08:04;;;;;;;10.10;4.30;;;;;;;39.89;19.56;99987.69;5025292;28;20031;-33
2022/07/23 11:11:15;;;;;;;10.17;4.33;;;;;;;40.24;16.89;99973.56;5027775;28;20100;-28
2022/07/23 11:13:45;;;;;;;13.20;4.93;;;;;;;39.91;17.04;99976.09;5020296;28;20739;-33
2022/07/23 11:16:20;;;;;;;8.13;3.80;;;;;;;39.76;17.12;99981.88;5025975;28;20525;-34
2022/07/23 11:18:48;;;;;;;7.30;4.45;;;;;;;39.73;17.67;99979.91;5027140;28;20807;-28
2022/07/23 11:21:29;;;;;;;9.05;4.05;;;;;;;39.94;16.80;99978.81;5027321;28;20064;-31
2022/07/23 11:24:03;;;;;;;11.07;4.63;;;;;;;40.00;16.52;99972.75;5026210;28;20043;-33
2022/07/23 11:26:39;;;;;;;8.23;4.40;;;;;;;40.19;16.88;99974.84;5027956;28;20037;-29